sensor_id;sensor_type;location;lat;lon;timestamp;pressure;altitude;pressure_sealevel;temperature;humidity
51928;BME280;37953;52.806;18.270;2023-03-01T00:00:54;102046.91;;;1.63;100.00
51928;BME280;37953;52.806;18.270;2023-03-01T00:03:23;102057.91;;;1.62;100.00
51928;BME280;37953;52.806;18.270;2023-03-01T00:05:49;102045.91;;;1.61;100.00
51928;BME280;37953;52.806;18.270;2023-03-01T00:08:15;102050.13;;;1.60;100.00
51928;BME280;37953;52.806;18.270;2023-03-01T00:10:41;102053.50;;;1.59;100.00
51928;BME280;37953;52.806;18.270;2023-03-01T00:13:06;102052.59;;;1.59;100.00
51928;BME280;37953;52.806;18.270;2023-03-01T00:15:32;102062.84;;;1.59;100.00
51928;BME280;37953;52.806;18.270;2023-03-01T00:18:00;102058.50;;;1.58;100.00
51928;BME280;37953;52.806;18.270;2023-03-01T00:20:26;102060.19;;;1.57;100.00
51928;BME280;37953;52.806;18.270;2023-03-01T00:22:51;102062.75;;;1.57;100.00
51928;BME280;37953;52.806;18.270;2023-03-01T00:25:17;102062.63;;;1.56;100.00
51928;BME280;37953;52.806;18.270;2023-03-01T00:27:43;102064.44;;;1.57;100.00
51928;BME280;37953;52.806;18.270;2023-03-01T00:30:09;102061.75;;;1.55;100.00
51928;BME280;37953;52.806;18.270;2023-03-01T00:32:35;102066.88;;;1.55;100.00
51928;BME280;37953;52.806;18.270;2023-03-01T00:35:01;102059.91;;;1.53;100.00
51928;BME280;37953;52.806;18.270;2023-03-01T00:37:27;102058.09;;;1.52;100.00
51928;BME280;37953;52.806;18.270;2023-03-01T00:39:53;102058.91;;;1.51;100.00
51928;BME280;37953;52.806;18.270;2023-03-01T00:42:18;102052.78;;;1.49;100.00
51928;BME280;37953;52.806;18.270;2023-03-01T00:44:44;102048.44;;;1.48;100.00
51928;BME280;37953;52.806;18.270;2023-03-01T00:47:18;102042.34;;;1.46;100.00
51928;BME280;37953;52.806;18.270;2023-03-01T00:49:43;102032.91;;;1.45;100.00
51928;BME280;37953;52.806;18.270;2023-03-01T00:52:09;102036.22;;;1.43;100.00
51928;BME280;37953;52.806;18.270;2023-03-01T00:54:35;102021.56;;;1.41;100.00
51928;BME280;37953;52.806;18.270;2023-03-01T00:57:01;102019.81;;;1.40;100.00
51928;BME280;37953;52.806;18.270;2023-03-01T00:59:26;102018.00;;;1.39;100.00
51928;BME280;37953;52.806;18.270;2023-03-01T01:01:52;102014.56;;;1.38;100.00
51928;BME280;37953;52.806;18.270;2023-03-01T01:04:18;102018.69;;;1.36;100.00
51928;BME280;37953;52.806;18.270;2023-03-01T01:06:45;102020.38;;;1.36;100.00
51928;BME280;37953;52.806;18.270;2023-03-01T01:09:12;102016.03;;;1.35;100.00
51928;BME280;37953;52.806;18.270;2023-03-01T01:11:46;102018.59;;;1.35;100.00
51928;BME280;37953;52.806;18.270;2023-03-01T01:14:17;102002.25;;;1.33;100.00
51928;BME280;37953;52.806;18.270;2023-03-01T01:16:44;101996.25;;;1.32;100.00
51928;BME280;37953;52.806;18.270;2023-03-01T01:19:13;101998.81;;;1.32;100.00
51928;BME280;37953;52.806;18.270;2023-03-01T01:21:39;102001.47;;;1.34;100.00
51928;BME280;37953;52.806;18.270;2023-03-01T01:24:05;102005.69;;;1.33;100.00
51928;BME280;37953;52.806;18.270;2023-03-01T01:26:34;101995.38;;;1.32;100.00
51928;BME280;37953;52.806;18.270;2023-03-01T01:29:00;101988.56;;;1.32;100.00
51928;BME280;37953;52.806;18.270;2023-03-01T01:31:26;101993.69;;;1.32;100.00
51928;BME280;37953;52.806;18.270;2023-03-01T01:33:54;101991.94;;;1.31;100.00
51928;BME280;37953;52.806;18.270;2023-03-01T01:36:26;101985.03;;;1.30;100.00
51928;BME280;37953;52.806;18.270;2023-03-01T01:38:52;101979.91;;;1.30;100.00
51928;BME280;37953;52.806;18.270;2023-03-01T01:41:18;101973.91;;;1.30;100.00
51928;BME280;37953;52.806;18.270;2023-03-01T01:43:46;101978.13;;;1.29;100.00
51928;BME280;37953;52.806;18.270;2023-03-01T01:48:39;101968.66;;;1.28;100.00
51928;BME280;37953;52.806;18.270;2023-03-01T01:51:11;101957.66;;;1.29;100.00
51928;BME280;37953;52.806;18.270;2023-03-01T01:53:38;101957.56;;;1.28;100.00
51928;BME280;37953;52.806;18.270;2023-03-01T01:56:05;101952.44;;;1.28;100.00
51928;BME280;37953;52.806;18.270;2023-03-01T01:58:32;101943.88;;;1.27;100.00
51928;BME280;37953;52.806;18.270;2023-03-01T02:00:58;101941.22;;;1.26;100.00
51928;BME280;37953;52.806;18.270;2023-03-01T02:03:27;101936.97;;;1.26;100.00
51928;BME280;37953;52.806;18.270;2023-03-01T02:08:25;101951.44;;;1.26;100.00
51928;BME280;37953;52.806;18.270;2023-03-01T02:10:52;101950.56;;;1.25;100.00
51928;BME280;37953;52.806;18.270;2023-03-01T02:13:21;101952.22;;;1.25;100.00
51928;BME280;37953;52.806;18.270;2023-03-01T02:15:47;101953.13;;;1.25;100.00
51928;BME280;37953;52.806;18.270;2023-03-01T02:18:14;101953.13;;;1.25;100.00
51928;BME280;37953;52.806;18.270;2023-03-01T02:20:50;101942.88;;;1.25;100.00
51928;BME280;37953;52.806;18.270;2023-03-01T02:23:18;101941.22;;;1.26;100.00
51928;BME280;37953;52.806;18.270;2023-03-01T02:28:31;101939.41;;;1.25;100.00
51928;BME280;37953;52.806;18.270;2023-03-01T02:30:57;101933.41;;;1.24;100.00
51928;BME280;37953;52.806;18.270;2023-03-01T02:33:41;101935.09;;;1.24;100.00
51928;BME280;37953;52.806;18.270;2023-03-01T02:36:09;101931.56;;;1.21;100.00
51928;BME280;37953;52.806;18.270;2023-03-01T02:38:37;101940.91;;;1.21;100.00
51928;BME280;37953;52.806;18.270;2023-03-01T02:41:02;101942.56;;;1.20;100.00
51928;BME280;37953;52.806;18.270;2023-03-01T02:43:31;101942.50;;;1.19;100.00
51928;BME280;37953;52.806;18.270;2023-03-01T02:45:58;101945.81;;;1.18;100.00
51928;BME280;37953;52.806;18.270;2023-03-01T02:48:24;101954.31;;;1.17;100.00
51928;BME280;37953;52.806;18.270;2023-03-01T02:53:37;101953.31;;;1.15;100.00
51928;BME280;37953;52.806;18.270;2023-03-01T02:56:04;101950.66;;;1.13;100.00
51928;BME280;37953;52.806;18.270;2023-03-01T02:58:30;101949.88;;;1.14;100.00
51928;BME280;37953;52.806;18.270;2023-03-01T03:00:56;101953.09;;;1.12;100.00
51928;BME280;37953;52.806;18.270;2023-03-01T03:03:22;101957.44;;;1.13;100.00
51928;BME280;37953;52.806;18.270;2023-03-01T03:05:48;101956.56;;;1.12;100.00
51928;BME280;37953;52.806;18.270;2023-03-01T03:08:14;101955.59;;;1.10;100.00
51928;BME280;37953;52.806;18.270;2023-03-01T03:10:54;101950.47;;;1.10;100.00
51928;BME280;37953;52.806;18.270;2023-03-01T03:13:20;101940.88;;;1.08;100.00
51928;BME280;37953;52.806;18.270;2023-03-01T03:15:52;101928.91;;;1.07;100.00
51928;BME280;37953;52.806;18.270;2023-03-01T03:18:18;101927.91;;;1.05;100.00
51928;BME280;37953;52.806;18.270;2023-03-01T03:20:44;101927.81;;;1.03;100.00
51928;BME280;37953;52.806;18.270;2023-03-01T03:23:10;101929.47;;;1.02;100.00
51928;BME280;37953;52.806;18.270;2023-03-01T03:25:36;101930.25;;;1.01;100.00
51928;BME280;37953;52.806;18.270;2023-03-01T03:28:03;101925.94;;;1.00;100.00
51928;BME280;37953;52.806;18.270;2023-03-01T03:30:35;101919.03;;;0.99;100.00
51928;BME280;37953;52.806;18.270;2023-03-01T03:33:02;101925.06;;;1.00;100.00
51928;BME280;37953;52.806;18.270;2023-03-01T03:35:29;101924.06;;;0.98;100.00
51928;BME280;37953;52.806;18.270;2023-03-01T03:38:03;101923.97;;;0.96;100.00
51928;BME280;37953;52.806;18.270;2023-03-01T03:40:41;101922.97;;;0.94;100.00
51928;BME280;37953;52.806;18.270;2023-03-01T03:43:11;101921.31;;;0.95;100.00
51928;BME280;37953;52.806;18.270;2023-03-01T03:45:37;101912.63;;;0.93;100.00
51928;BME280;37953;52.806;18.270;2023-03-01T03:48:04;101915.19;;;0.93;100.00
51928;BME280;37953;52.806;18.270;2023-03-01T03:50:33;101906.66;;;0.92;100.00
51928;BME280;37953;52.806;18.270;2023-03-01T03:53:00;101904.97;;;0.93;100.00
51928;BME280;37953;52.806;18.270;2023-03-01T03:55:25;101906.66;;;0.92;100.00
51928;BME280;37953;52.806;18.270;2023-03-01T03:57:59;101898.97;;;0.92;100.00
51928;BME280;37953;52.806;18.270;2023-03-01T04:00:38;101886.97;;;0.91;100.00
51928;BME280;37953;52.806;18.270;2023-03-01T04:03:05;101894.72;;;0.93;100.00
51928;BME280;37953;52.806;18.270;2023-03-01T04:05:30;101887.84;;;0.92;100.00
51928;BME280;37953;52.806;18.270;2023-03-01T04:07:57;101894.84;;;0.94;100.00
51928;BME280;37953;52.806;18.270;2023-03-01T04:10:33;101888.94;;;0.95;100.00
51928;BME280;37953;52.806;18.270;2023-03-01T04:12:59;101889.81;;;0.96;100.00
51928;BME280;37953;52.806;18.270;2023-03-01T04:15:25;101882.16;;;0.96;100.00
51928;BME280;37953;52.806;18.270;2023-03-01T04:17:52;101880.47;;;0.96;100.00
51928;BME280;37953;52.806;18.270;2023-03-01T04:20:20;101883.91;;;0.97;100.00
51928;BME280;37953;52.806;18.270;2023-03-01T04:22:53;101889.94;;;0.97;100.00
51928;BME280;37953;52.806;18.270;2023-03-01T04:25:22;101888.25;;;0.98;100.00
51928;BME280;37953;52.806;18.270;2023-03-01T04:27:48;101890.00;;;0.99;100.00
51928;BME280;37953;52.806;18.270;2023-03-01T04:30:14;101881.44;;;0.98;100.00
51928;BME280;37953;52.806;18.270;2023-03-01T04:32:40;101884.88;;;0.99;100.00
51928;BME280;37953;52.806;18.270;2023-03-01T04:35:06;101895.13;;;0.99;100.00
51928;BME280;37953;52.806;18.270;2023-03-01T04:37:32;101895.13;;;0.99;100.00
51928;BME280;37953;52.806;18.270;2023-03-01T04:39:58;101895.13;;;0.99;100.00
51928;BME280;37953;52.806;18.270;2023-03-01T04:42:24;101902.81;;;0.99;100.00
51928;BME280;37953;52.806;18.270;2023-03-01T04:44:49;101904.59;;;1.00;100.00
51928;BME280;37953;52.806;18.270;2023-03-01T04:47:16;101899.47;;;1.00;100.00
51928;BME280;37953;52.806;18.270;2023-03-01T04:49:42;101897.69;;;0.99;100.00
51928;BME280;37953;52.806;18.270;2023-03-01T04:52:08;101896.81;;;0.98;100.00
51928;BME280;37953;52.806;18.270;2023-03-01T04:54:34;101894.25;;;0.98;100.00
51928;BME280;37953;52.806;18.270;2023-03-01T04:57:01;101891.69;;;0.98;100.00
51928;BME280;37953;52.806;18.270;2023-03-01T04:59:27;101884.81;;;0.97;100.00
51928;BME280;37953;52.806;18.270;2023-03-01T05:01:54;101886.47;;;0.97;100.00
51928;BME280;37953;52.806;18.270;2023-03-01T05:04:23;101888.44;;;1.01;100.00
51928;BME280;37953;52.806;18.270;2023-03-01T05:06:49;101885.97;;;1.02;100.00
51928;BME280;37953;52.806;18.270;2023-03-01T05:09:15;101884.41;;;1.05;100.00
51928;BME280;37953;52.806;18.270;2023-03-01T05:11:41;101887.06;;;1.06;100.00
51928;BME280;37953;52.806;18.270;2023-03-01T05:14:07;101877.81;;;1.08;100.00
51928;BME280;37953;52.806;18.270;2023-03-01T05:16:34;101879.69;;;1.11;100.00
51928;BME280;37953;52.806;18.270;2023-03-01T05:18:59;101872.00;;;1.11;100.00
51928;BME280;37953;52.806;18.270;2023-03-01T05:21:25;101867.78;;;1.11;100.00
51928;BME280;37953;52.806;18.270;2023-03-01T05:23:51;101872.88;;;1.11;100.00
51928;BME280;37953;52.806;18.270;2023-03-01T05:26:18;101864.31;;;1.11;100.00
51928;BME280;37953;52.806;18.270;2023-03-01T05:28:45;101871.03;;;1.09;100.00
51928;BME280;37953;52.806;18.270;2023-03-01T05:31:11;101877.03;;;1.09;100.00
51928;BME280;37953;52.806;18.270;2023-03-01T05:33:37;101873.47;;;1.07;100.00
51928;BME280;37953;52.806;18.270;2023-03-01T05:36:03;101878.69;;;1.09;100.00
51928;BME280;37953;52.806;18.270;2023-03-01T05:38:29;101877.72;;;1.07;100.00
51928;BME280;37953;52.806;18.270;2023-03-01T05:40:55;101882.84;;;1.07;100.00
51928;BME280;37953;52.806;18.270;2023-03-01T05:43:21;101885.41;;;1.07;100.00
51928;BME280;37953;52.806;18.270;2023-03-01T05:45:47;101881.03;;;1.06;100.00
51928;BME280;37953;52.806;18.270;2023-03-01T05:48:13;101881.84;;;1.05;100.00
51928;BME280;37953;52.806;18.270;2023-03-01T05:50:39;101871.63;;;1.05;100.00
51928;BME280;37953;52.806;18.270;2023-03-01T05:53:06;101871.63;;;1.05;100.00
51928;BME280;37953;52.806;18.270;2023-03-01T05:55:33;101875.06;;;1.05;100.00
51928;BME280;37953;52.806;18.270;2023-03-01T05:58:00;101875.06;;;1.05;100.00
51928;BME280;37953;52.806;18.270;2023-03-01T06:00:27;101879.41;;;1.06;100.00
51928;BME280;37953;52.806;18.270;2023-03-01T06:02:53;101881.16;;;1.07;100.00
51928;BME280;37953;52.806;18.270;2023-03-01T06:05:20;101874.19;;;1.05;100.00
51928;BME280;37953;52.806;18.270;2023-03-01T06:07:45;101879.41;;;1.06;100.00
51928;BME280;37953;52.806;18.270;2023-03-01T06:10:13;101874.28;;;1.06;100.00
51928;BME280;37953;52.806;18.270;2023-03-01T06:12:39;101884.53;;;1.06;100.00
51928;BME280;37953;52.806;18.270;2023-03-01T06:15:06;101882.03;;;1.08;100.00
51928;BME280;37953;52.806;18.270;2023-03-01T06:17:33;101876.03;;;1.07;100.00
51928;BME280;37953;52.806;18.270;2023-03-01T06:20:15;101876.03;;;1.07;100.00
51928;BME280;37953;52.806;18.270;2023-03-01T06:22:42;101881.38;;;1.10;100.00
51928;BME280;37953;52.806;18.270;2023-03-01T06:25:09;101883.94;;;1.10;100.00
51928;BME280;37953;52.806;18.270;2023-03-01T06:27:35;101892.59;;;1.12;100.00
51928;BME280;37953;52.806;18.270;2023-03-01T06:30:01;101889.13;;;1.12;100.00
51928;BME280;37953;52.806;18.270;2023-03-01T06:32:27;101893.56;;;1.14;100.00
51928;BME280;37953;52.806;18.270;2023-03-01T06:34:53;101895.31;;;1.15;100.00
51928;BME280;37953;52.806;18.270;2023-03-01T06:37:19;101895.31;;;1.15;100.00
51928;BME280;37953;52.806;18.270;2023-03-01T06:39:45;101893.66;;;1.16;100.00
51928;BME280;37953;52.806;18.270;2023-03-01T06:42:10;101898.06;;;1.18;100.00
51928;BME280;37953;52.806;18.270;2023-03-01T06:44:37;101902.41;;;1.19;100.00
51928;BME280;37953;52.806;18.270;2023-03-01T06:47:03;101900.84;;;1.21;100.00
51928;BME280;37953;52.806;18.270;2023-03-01T06:49:29;101906.06;;;1.23;100.00
51928;BME280;37953;52.806;18.270;2023-03-01T06:51:55;101898.47;;;1.25;100.00
51928;BME280;37953;52.806;18.270;2023-03-01T06:54:22;101901.94;;;1.25;100.00
51928;BME280;37953;52.806;18.270;2023-03-01T06:56:48;101898.56;;;1.26;100.00
51928;BME280;37953;52.806;18.270;2023-03-01T06:59:14;101894.31;;;1.27;100.00
51928;BME280;37953;52.806;18.270;2023-03-01T07:01:40;101891.00;;;1.28;100.00
51928;BME280;37953;52.806;18.270;2023-03-01T07:04:12;101891.16;;;1.31;100.00
51928;BME280;37953;52.806;18.270;2023-03-01T07:06:38;101899.75;;;1.31;100.00
51928;BME280;37953;52.806;18.270;2023-03-01T07:09:04;101897.28;;;1.33;100.00
51928;BME280;37953;52.806;18.270;2023-03-01T07:11:31;101898.25;;;1.35;100.00
51928;BME280;37953;52.806;18.270;2023-03-01T07:13:56;101899.34;;;1.38;100.00
51928;BME280;37953;52.806;18.270;2023-03-01T07:16:23;101884.97;;;1.40;100.00
51928;BME280;37953;52.806;18.270;2023-03-01T07:18:49;101885.94;;;1.42;100.00
51928;BME280;37953;52.806;18.270;2023-03-01T07:21:15;101882.69;;;1.45;100.00
51928;BME280;37953;52.806;18.270;2023-03-01T07:23:42;101888.78;;;1.47;100.00
51928;BME280;37953;52.806;18.270;2023-03-01T07:26:08;101880.50;;;1.51;100.00
51928;BME280;37953;52.806;18.270;2023-03-01T07:28:34;101866.91;;;1.52;100.00
51928;BME280;37953;52.806;18.270;2023-03-01T07:31:02;101877.34;;;1.55;100.00
51928;BME280;37953;52.806;18.270;2023-03-01T07:33:28;101879.22;;;1.58;100.00
51928;BME280;37953;52.806;18.270;2023-03-01T07:35:58;101878.50;;;1.60;100.00
51928;BME280;37953;52.806;18.270;2023-03-01T07:38:25;101887.16;;;1.62;100.00
51928;BME280;37953;52.806;18.270;2023-03-01T07:40:57;101877.91;;;1.65;100.00
51928;BME280;37953;52.806;18.270;2023-03-01T07:43:24;101873.00;;;1.68;100.00
51928;BME280;37953;52.806;18.270;2023-03-01T07:45:50;101863.72;;;1.70;100.00
51928;BME280;37953;52.806;18.270;2023-03-01T07:48:17;101868.16;;;1.72;100.00
51928;BME280;37953;52.806;18.270;2023-03-01T07:50:43;101864.09;;;1.76;100.00
51928;BME280;37953;52.806;18.270;2023-03-01T07:53:09;101869.41;;;1.79;100.00
51928;BME280;37953;52.806;18.270;2023-03-01T07:55:35;101861.00;;;1.81;100.00
51928;BME280;37953;52.806;18.270;2023-03-01T07:58:01;101856.84;;;1.83;100.00
51928;BME280;37953;52.806;18.270;2023-03-01T08:00:27;101853.59;;;1.86;100.00
51928;BME280;37953;52.806;18.270;2023-03-01T08:02:53;101846.88;;;1.88;100.00
51928;BME280;37953;52.806;18.270;2023-03-01T08:05:19;101842.84;;;1.92;100.00
51928;BME280;37953;52.806;18.270;2023-03-01T08:07:45;101850.72;;;1.95;100.00
51928;BME280;37953;52.806;18.270;2023-03-01T08:10:11;101853.44;;;1.98;100.00
51928;BME280;37953;52.806;18.270;2023-03-01T08:12:37;101845.16;;;2.02;100.00
51928;BME280;37953;52.806;18.270;2023-03-01T08:15:02;101846.22;;;2.06;100.00
51928;BME280;37953;52.806;18.270;2023-03-01T08:17:29;101848.19;;;2.10;100.00
51928;BME280;37953;52.806;18.270;2023-03-01T08:19:54;101839.78;;;2.12;100.00
51928;BME280;37953;52.806;18.270;2023-03-01T08:22:20;101834.81;;;2.15;100.00
51928;BME280;37953;52.806;18.270;2023-03-01T08:24:46;101845.28;;;2.18;100.00
51928;BME280;37953;52.806;18.270;2023-03-01T08:27:12;101843.69;;;2.20;100.00
51928;BME280;37953;52.806;18.270;2023-03-01T08:29:38;101842.97;;;2.23;100.00
51928;BME280;37953;52.806;18.270;2023-03-01T08:32:04;101842.38;;;2.27;100.00
51928;BME280;37953;52.806;18.270;2023-03-01T08:34:30;101849.34;;;2.30;100.00
51928;BME280;37953;52.806;18.270;2023-03-01T08:36:57;101832.38;;;2.32;100.00
51928;BME280;37953;52.806;18.270;2023-03-01T08:39:22;101838.56;;;2.35;100.00
51928;BME280;37953;52.806;18.270;2023-03-01T08:41:48;101839.59;;;2.39;100.00
51928;BME280;37953;52.806;18.270;2023-03-01T08:44:14;101838.03;;;2.41;100.00
51928;BME280;37953;52.806;18.270;2023-03-01T08:46:42;101839.19;;;2.46;100.00
51928;BME280;37953;52.806;18.270;2023-03-01T08:49:12;101839.25;;;2.48;100.00
51928;BME280;37953;52.806;18.270;2023-03-01T08:51:39;101842.00;;;2.51;100.00
51928;BME280;37953;52.806;18.270;2023-03-01T08:54:06;101844.69;;;2.52;100.00
51928;BME280;37953;52.806;18.270;2023-03-01T08:56:32;101858.53;;;2.56;100.00
51928;BME280;37953;52.806;18.270;2023-03-01T08:59:01;101850.94;;;2.57;100.00
51928;BME280;37953;52.806;18.270;2023-03-01T09:01:27;101852.00;;;2.61;100.00
51928;BME280;37953;52.806;18.270;2023-03-01T09:03:53;101846.25;;;2.65;100.00
51928;BME280;37953;52.806;18.270;2023-03-01T09:06:19;101849.84;;;2.69;100.00
51928;BME280;37953;52.806;18.270;2023-03-01T09:08:46;101851.75;;;2.71;100.00
51928;BME280;37953;52.806;18.270;2023-03-01T09:11:14;101851.13;;;2.75;100.00
51928;BME280;37953;52.806;18.270;2023-03-01T09:13:41;101842.69;;;2.78;100.00
51928;BME280;37953;52.806;18.270;2023-03-01T09:16:07;101844.66;;;2.82;100.00
51928;BME280;37953;52.806;18.270;2023-03-01T09:18:33;101843.94;;;2.84;100.00
51928;BME280;37953;52.806;18.270;2023-03-01T09:21:07;101846.66;;;2.88;100.00
51928;BME280;37953;52.806;18.270;2023-03-01T09:23:51;101847.81;;;2.93;100.00
51928;BME280;37953;52.806;18.270;2023-03-01T09:26:19;101849.75;;;2.97;100.00
51928;BME280;37953;52.806;18.270;2023-03-01T09:28:45;101852.56;;;3.01;100.00
51928;BME280;37953;52.806;18.270;2023-03-01T09:31:12;101847.69;;;3.06;100.00
51928;BME280;37953;52.806;18.270;2023-03-01T09:33:45;101854.75;;;3.10;100.00
51928;BME280;37953;52.806;18.270;2023-03-01T09:36:13;101860.00;;;3.12;100.00
51928;BME280;37953;52.806;18.270;2023-03-01T09:38:42;101861.84;;;3.14;100.00
51928;BME280;37953;52.806;18.270;2023-03-01T09:43:47;101857.19;;;3.23;100.00
51928;BME280;37953;52.806;18.270;2023-03-01T09:46:26;101860.03;;;3.28;100.00
51928;BME280;37953;52.806;18.270;2023-03-01T09:48:56;101858.69;;;3.35;100.00
51928;BME280;37953;52.806;18.270;2023-03-01T09:51:26;101850.34;;;3.39;100.00
51928;BME280;37953;52.806;18.270;2023-03-01T09:53:55;101850.66;;;3.45;100.00
51928;BME280;37953;52.806;18.270;2023-03-01T09:56:28;101844.88;;;3.49;100.00
51928;BME280;37953;52.806;18.270;2023-03-01T09:58:58;101841.66;;;3.53;100.00
51928;BME280;37953;52.806;18.270;2023-03-01T10:04:00;101833.66;;;3.63;100.00
51928;BME280;37953;52.806;18.270;2023-03-01T10:06:27;101825.47;;;3.71;100.00
51928;BME280;37953;52.806;18.270;2023-03-01T10:08:58;101821.44;;;3.76;100.00
51928;BME280;37953;52.806;18.270;2023-03-01T10:11:32;101820.06;;;3.82;100.00
51928;BME280;37953;52.806;18.270;2023-03-01T10:14:03;101817.75;;;3.87;100.00
51928;BME280;37953;52.806;18.270;2023-03-01T10:19:03;101808.75;;;3.95;100.00
51928;BME280;37953;52.806;18.270;2023-03-01T10:21:30;101803.03;;;4.01;100.00
51928;BME280;37953;52.806;18.270;2023-03-01T10:24:07;101817.00;;;4.06;100.00
51928;BME280;37953;52.806;18.270;2023-03-01T10:26:48;101812.03;;;4.09;100.00
51928;BME280;37953;52.806;18.270;2023-03-01T10:29:23;101816.53;;;4.13;100.00
51928;BME280;37953;52.806;18.270;2023-03-01T10:31:52;101814.09;;;4.16;100.00
51928;BME280;37953;52.806;18.270;2023-03-01T10:34:35;101814.41;;;4.22;100.00
51928;BME280;37953;52.806;18.270;2023-03-01T10:37:09;101806.91;;;4.27;100.00
51928;BME280;37953;52.806;18.270;2023-03-01T10:39:36;101805.38;;;4.31;100.00
51928;BME280;37953;52.806;18.270;2023-03-01T10:47:19;101811.34;;;4.47;100.00
51928;BME280;37953;52.806;18.270;2023-03-01T10:49:52;101793.47;;;4.51;100.00
51928;BME280;37953;52.806;18.270;2023-03-01T10:52:20;101793.66;;;4.54;100.00
51928;BME280;37953;52.806;18.270;2023-03-01T10:54:54;101781.81;;;4.57;100.00
51928;BME280;37953;52.806;18.270;2023-03-01T10:57:30;101783.69;;;4.61;100.00
51928;BME280;37953;52.806;18.270;2023-03-01T11:00:30;101777.97;;;4.67;100.00
51928;BME280;37953;52.806;18.270;2023-03-01T11:02:50;101781.66;;;4.72;100.00
51928;BME280;37953;52.806;18.270;2023-03-01T11:05:22;101770.75;;;4.78;100.00
51928;BME280;37953;52.806;18.270;2023-03-01T11:07:52;101760.69;;;4.82;100.00
51928;BME280;37953;52.806;18.270;2023-03-01T11:10:25;101758.38;;;4.88;100.00
51928;BME280;37953;52.806;18.270;2023-03-01T11:12:52;101757.88;;;4.96;100.00
51928;BME280;37953;52.806;18.270;2023-03-01T11:15:23;101759.91;;;5.03;100.00
51928;BME280;37953;52.806;18.270;2023-03-01T11:17:49;101761.03;;;5.08;100.00
51928;BME280;37953;52.806;18.270;2023-03-01T11:23:18;101746.72;;;5.15;100.00
51928;BME280;37953;52.806;18.270;2023-03-01T11:25:51;101737.50;;;5.20;100.00
51928;BME280;37953;52.806;18.270;2023-03-01T11:28:19;101744.56;;;5.24;100.00
51928;BME280;37953;52.806;18.270;2023-03-01T11:38:41;101734.25;;;5.43;100.00
51928;BME280;37953;52.806;18.270;2023-03-01T11:41:12;101732.78;;;5.48;100.00
51928;BME280;37953;52.806;18.270;2023-03-01T11:43:59;101721.81;;;5.54;100.00
51928;BME280;37953;52.806;18.270;2023-03-01T11:46:36;101722.03;;;5.59;100.00
51928;BME280;37953;52.806;18.270;2023-03-01T12:23:48;101711.63;;;6.17;100.00
51928;BME280;37953;52.806;18.270;2023-03-01T12:29:02;101702.56;;;6.27;100.00
51928;BME280;37953;52.806;18.270;2023-03-01T12:31:43;101701.78;;;6.29;100.00
51928;BME280;37953;52.806;18.270;2023-03-01T12:34:38;101701.97;;;6.34;100.00
51928;BME280;37953;52.806;18.270;2023-03-01T12:47:49;101699.88;;;6.46;100.00
51928;BME280;37953;52.806;18.270;2023-03-01T12:50:20;101703.41;;;6.48;100.00
51928;BME280;37953;52.806;18.270;2023-03-01T12:52:49;101701.75;;;6.50;100.00
51928;BME280;37953;52.806;18.270;2023-03-01T12:55:34;101703.56;;;6.53;100.00
51928;BME280;37953;52.806;18.270;2023-03-01T13:00:55;101691.78;;;6.60;100.00
51928;BME280;37953;52.806;18.270;2023-03-01T13:04:02;101693.59;;;6.62;100.00
51928;BME280;37953;52.806;18.270;2023-03-01T13:06:29;101699.75;;;6.66;100.00
51928;BME280;37953;52.806;18.270;2023-03-01T13:09:04;101692.09;;;6.67;100.00
51928;BME280;37953;52.806;18.270;2023-03-01T13:11:32;101694.84;;;6.72;100.00
51928;BME280;37953;52.806;18.270;2023-03-01T13:16:44;101689.03;;;6.78;100.00
51928;BME280;37953;52.806;18.270;2023-03-01T13:19:17;101688.25;;;6.80;100.00
51928;BME280;37953;52.806;18.270;2023-03-01T13:21:44;101684.97;;;6.84;100.00
51928;BME280;37953;52.806;18.270;2023-03-01T13:32:18;101672.56;;;6.98;100.00
51928;BME280;37953;52.806;18.270;2023-03-01T13:34:48;101667.44;;;7.00;100.00
51928;BME280;37953;52.806;18.270;2023-03-01T13:37:24;101660.63;;;7.02;100.00
51928;BME280;37953;52.806;18.270;2023-03-01T13:40:02;101651.19;;;7.02;100.00
51928;BME280;37953;52.806;18.270;2023-03-01T13:44:56;101657.28;;;7.04;100.00
51928;BME280;37953;52.806;18.270;2023-03-01T13:47:28;101658.13;;;7.03;100.00
51928;BME280;37953;52.806;18.270;2023-03-01T13:49:58;101655.53;;;7.03;100.00
51928;BME280;37953;52.806;18.270;2023-03-01T13:52:37;101647.78;;;7.03;100.00
51928;BME280;37953;52.806;18.270;2023-03-01T13:57:39;101653.72;;;7.01;100.00
51928;BME280;37953;52.806;18.270;2023-03-01T14:00:05;101656.31;;;7.01;100.00
51928;BME280;37953;52.806;18.270;2023-03-01T14:02:31;101648.50;;;6.99;100.00
51928;BME280;37953;52.806;18.270;2023-03-01T14:04:58;101645.84;;;6.98;100.00
51928;BME280;37953;52.806;18.270;2023-03-01T14:07:25;101638.94;;;6.97;100.00
51928;BME280;37953;52.806;18.270;2023-03-01T14:09:52;101635.41;;;6.95;100.00
51928;BME280;37953;52.806;18.270;2023-03-01T14:12:36;101637.09;;;6.94;100.00
51928;BME280;37953;52.806;18.270;2023-03-01T14:20:16;101623.22;;;6.90;100.00
51928;BME280;37953;52.806;18.270;2023-03-01T14:22:42;101627.47;;;6.90;100.00
51928;BME280;37953;52.806;18.270;2023-03-01T14:30:36;101613.75;;;6.91;100.00
51928;BME280;37953;52.806;18.270;2023-03-01T14:33:03;101605.13;;;6.90;100.00
51928;BME280;37953;52.806;18.270;2023-03-01T14:35:35;101611.16;;;6.91;100.00
51928;BME280;37953;52.806;18.270;2023-03-01T14:38:01;101605.13;;;6.90;100.00